sensor_id;sensor_type;location;lat;lon;timestamp;pressure;altitude;pressure_sealevel;temperature;humidity
23635;BME280;11994;51.038;16.974;2023-02-12T00:01:29;101631.96;;;6.49;95.92
23635;BME280;11994;51.038;16.974;2023-02-12T00:03:55;101637.35;;;6.49;95.84
23635;BME280;11994;51.038;16.974;2023-02-12T00:06:21;101639.95;;;6.48;96.06
23635;BME280;11994;51.038;16.974;2023-02-12T00:08:51;101647.94;;;6.49;95.98
23635;BME280;11994;51.038;16.974;2023-02-12T00:11:19;101644.78;;;6.47;96.01
23635;BME280;11994;51.038;16.974;2023-02-12T00:13:45;101643.73;;;6.47;95.89
23635;BME280;11994;51.038;16.974;2023-02-12T00:16:14;101651.73;;;6.47;95.91
23635;BME280;11994;51.038;16.974;2023-02-12T00:18:40;101649.45;;;6.46;95.79
23635;BME280;11994;51.038;16.974;2023-02-12T00:21:06;101652.55;;;6.45;95.97
23635;BME280;11994;51.038;16.974;2023-02-12T00:23:36;101653.91;;;6.42;95.83
23635;BME280;11994;51.038;16.974;2023-02-12T00:26:16;101661.23;;;6.43;95.88
23635;BME280;11994;51.038;16.974;2023-02-12T00:28:42;101662.80;;;6.43;95.79
23635;BME280;11994;51.038;16.974;2023-02-12T00:31:12;101664.54;;;6.44;95.96
23635;BME280;11994;51.038;16.974;2023-02-12T00:33:38;101666.81;;;6.45;96.06
23635;BME280;11994;51.038;16.974;2023-02-12T00:36:04;101671.64;;;6.42;96.06
23635;BME280;11994;51.038;16.974;2023-02-12T00:38:30;101672.87;;;6.43;96.00
23635;BME280;11994;51.038;16.974;2023-02-12T00:40:56;101670.61;;;6.43;95.96
23635;BME280;11994;51.038;16.974;2023-02-12T00:43:21;101673.56;;;6.44;95.91
23635;BME280;11994;51.038;16.974;2023-02-12T00:45:47;101673.59;;;6.44;95.95
23635;BME280;11994;51.038;16.974;2023-02-12T00:48:13;101677.07;;;6.45;96.11
23635;BME280;11994;51.038;16.974;2023-02-12T00:50:39;101679.66;;;6.44;95.96
23635;BME280;11994;51.038;16.974;2023-02-12T00:53:06;101681.90;;;6.43;96.15
23635;BME280;11994;51.038;16.974;2023-02-12T00:55:32;101682.09;;;6.45;96.05
23635;BME280;11994;51.038;16.974;2023-02-12T00:57:57;101686.11;;;6.46;96.08
23635;BME280;11994;51.038;16.974;2023-02-12T01:00:23;101684.11;;;6.50;96.09
23635;BME280;11994;51.038;16.974;2023-02-12T01:02:48;101683.95;;;6.52;96.22
23635;BME280;11994;51.038;16.974;2023-02-12T01:05:13;101686.91;;;6.52;96.39
23635;BME280;11994;51.038;16.974;2023-02-12T01:07:39;101683.23;;;6.50;96.52
23635;BME280;11994;51.038;16.974;2023-02-12T01:10:06;101690.39;;;6.51;96.28
23635;BME280;11994;51.038;16.974;2023-02-12T01:12:32;101692.98;;;6.51;96.25
23635;BME280;11994;51.038;16.974;2023-02-12T01:14:57;101694.20;;;6.51;96.18
23635;BME280;11994;51.038;16.974;2023-02-12T01:17:23;101695.37;;;6.49;96.39
23635;BME280;11994;51.038;16.974;2023-02-12T01:19:48;101694.99;;;6.47;96.23
23635;BME280;11994;51.038;16.974;2023-02-12T01:22:13;101695.88;;;6.47;96.26
23635;BME280;11994;51.038;16.974;2023-02-12T01:24:39;101700.20;;;6.47;96.31
23635;BME280;11994;51.038;16.974;2023-02-12T01:27:04;101701.59;;;6.47;96.23
23635;BME280;11994;51.038;16.974;2023-02-12T01:29:29;101705.77;;;6.46;96.42
23635;BME280;11994;51.038;16.974;2023-02-12T01:31:55;101712.33;;;6.43;96.46
23635;BME280;11994;51.038;16.974;2023-02-12T01:34:20;101709.36;;;6.43;96.44
23635;BME280;11994;51.038;16.974;2023-02-12T01:36:45;101710.23;;;6.44;96.37
23635;BME280;11994;51.038;16.974;2023-02-12T01:39:13;101708.52;;;6.45;96.37
23635;BME280;11994;51.038;16.974;2023-02-12T01:41:42;101712.14;;;6.44;96.48
23635;BME280;11994;51.038;16.974;2023-02-12T01:44:11;101718.22;;;6.43;96.40
23635;BME280;11994;51.038;16.974;2023-02-12T01:46:37;101721.99;;;6.41;96.60
23635;BME280;11994;51.038;16.974;2023-02-12T01:49:05;101725.64;;;6.40;96.52
23635;BME280;11994;51.038;16.974;2023-02-12T01:51:32;101722.50;;;6.40;96.51
23635;BME280;11994;51.038;16.974;2023-02-12T01:54:00;101728.60;;;6.40;96.51
23635;BME280;11994;51.038;16.974;2023-02-12T01:56:27;101729.63;;;6.40;96.66
23635;BME280;11994;51.038;16.974;2023-02-12T01:58:54;101729.62;;;6.39;96.68
23635;BME280;11994;51.038;16.974;2023-02-12T02:01:24;101724.95;;;6.41;96.82
23635;BME280;11994;51.038;16.974;2023-02-12T02:03:53;101723.11;;;6.44;97.01
23635;BME280;11994;51.038;16.974;2023-02-12T02:06:30;101742.66;;;6.50;97.12
23635;BME280;11994;51.038;16.974;2023-02-12T02:08:56;101745.30;;;6.51;97.27
23635;BME280;11994;51.038;16.974;2023-02-12T02:11:22;101740.92;;;6.50;97.13
23635;BME280;11994;51.038;16.974;2023-02-12T02:14:06;101745.55;;;6.46;96.90
23635;BME280;11994;51.038;16.974;2023-02-12T02:22:10;101751.30;;;6.47;96.99
23635;BME280;11994;51.038;16.974;2023-02-12T02:27:43;101750.75;;;6.45;97.07
23635;BME280;11994;51.038;16.974;2023-02-12T02:30:36;101755.29;;;6.46;97.10
23635;BME280;11994;51.038;16.974;2023-02-12T02:33:10;101756.70;;;6.48;96.99
23635;BME280;11994;51.038;16.974;2023-02-12T02:35:40;101759.11;;;6.46;97.18
23635;BME280;11994;51.038;16.974;2023-02-12T02:41:07;101760.45;;;6.43;97.12
23635;BME280;11994;51.038;16.974;2023-02-12T02:43:43;101762.33;;;6.42;97.19
23635;BME280;11994;51.038;16.974;2023-02-12T02:48:52;101770.73;;;6.45;97.16
23635;BME280;11994;51.038;16.974;2023-02-12T02:51:24;101778.92;;;6.46;97.09
23635;BME280;11994;51.038;16.974;2023-02-12T02:56:26;101782.02;;;6.45;97.05
23635;BME280;11994;51.038;16.974;2023-02-12T02:59:05;101785.48;;;6.43;97.05
23635;BME280;11994;51.038;16.974;2023-02-12T03:01:39;101786.35;;;6.44;96.99
23635;BME280;11994;51.038;16.974;2023-02-12T03:04:17;101791.92;;;6.44;97.03
23635;BME280;11994;51.038;16.974;2023-02-12T03:06:51;101791.56;;;6.43;97.02
23635;BME280;11994;51.038;16.974;2023-02-12T03:09:24;101789.27;;;6.42;97.08
23635;BME280;11994;51.038;16.974;2023-02-12T03:11:54;101793.42;;;6.41;97.05
23635;BME280;11994;51.038;16.974;2023-02-12T03:14:37;101796.36;;;6.41;97.09
23635;BME280;11994;51.038;16.974;2023-02-12T03:17:14;101794.96;;;6.40;96.97
23635;BME280;11994;51.038;16.974;2023-02-12T03:19:46;101798.38;;;6.37;97.12
23635;BME280;11994;51.038;16.974;2023-02-12T03:22:24;101804.41;;;6.34;97.29
23635;BME280;11994;51.038;16.974;2023-02-12T03:25:15;101807.69;;;6.33;97.40
23635;BME280;11994;51.038;16.974;2023-02-12T03:27:48;101809.95;;;6.33;97.16
23635;BME280;11994;51.038;16.974;2023-02-12T03:30:17;101812.38;;;6.33;97.04
23635;BME280;11994;51.038;16.974;2023-02-12T03:32:47;101818.45;;;6.33;97.11
23635;BME280;11994;51.038;16.974;2023-02-12T03:35:24;101823.62;;;6.31;97.16
23635;BME280;11994;51.038;16.974;2023-02-12T03:38:00;101830.55;;;6.30;97.20
23635;BME280;11994;51.038;16.974;2023-02-12T03:40:34;101837.02;;;6.32;97.16
23635;BME280;11994;51.038;16.974;2023-02-12T03:43:22;101841.58;;;6.33;97.16
23635;BME280;11994;51.038;16.974;2023-02-12T03:46:00;101841.07;;;6.34;97.14
23635;BME280;11994;51.038;16.974;2023-02-12T03:51:38;101851.69;;;6.35;97.16
23635;BME280;11994;51.038;16.974;2023-02-12T03:54:07;101852.53;;;6.34;97.01
23635;BME280;11994;51.038;16.974;2023-02-12T03:56:43;101850.10;;;6.34;97.13
23635;BME280;11994;51.038;16.974;2023-02-12T03:59:13;101853.75;;;6.33;97.07
23635;BME280;11994;51.038;16.974;2023-02-12T04:01:39;101859.98;;;6.32;97.20
23635;BME280;11994;51.038;16.974;2023-02-12T04:04:06;101860.28;;;6.31;97.16
23635;BME280;11994;51.038;16.974;2023-02-12T04:06:32;101860.67;;;6.32;97.27
23635;BME280;11994;51.038;16.974;2023-02-12T04:09:02;101867.99;;;6.33;97.10
23635;BME280;11994;51.038;16.974;2023-02-12T04:11:35;101871.12;;;6.34;97.16
23635;BME280;11994;51.038;16.974;2023-02-12T04:19:39;101877.55;;;6.33;97.22
23635;BME280;11994;51.038;16.974;2023-02-12T04:22:13;101880.86;;;6.34;97.22
23635;BME280;11994;51.038;16.974;2023-02-12T04:24:51;101884.17;;;6.34;97.15
23635;BME280;11994;51.038;16.974;2023-02-12T04:27:28;101889.23;;;6.35;97.21
23635;BME280;11994;51.038;16.974;2023-02-12T04:30:32;101886.77;;;6.35;97.23
23635;BME280;11994;51.038;16.974;2023-02-12T04:33:02;101889.92;;;6.35;97.07
23635;BME280;11994;51.038;16.974;2023-02-12T04:35:39;101889.73;;;6.35;97.17
23635;BME280;11994;51.038;16.974;2023-02-12T04:38:34;101896.14;;;6.33;97.04
23635;BME280;11994;51.038;16.974;2023-02-12T04:41:04;101903.04;;;6.31;97.02
23635;BME280;11994;51.038;16.974;2023-02-12T04:43:33;101901.58;;;6.28;97.13
23635;BME280;11994;51.038;16.974;2023-02-12T04:45:59;101910.64;;;6.29;97.23
23635;BME280;11994;51.038;16.974;2023-02-12T04:48:25;101916.23;;;6.30;97.30
23635;BME280;11994;51.038;16.974;2023-02-12T04:50:50;101914.84;;;6.30;97.33
23635;BME280;11994;51.038;16.974;2023-02-12T04:53:16;101914.15;;;6.31;97.39
23635;BME280;11994;51.038;16.974;2023-02-12T04:55:42;101915.54;;;6.31;97.46
23635;BME280;11994;51.038;16.974;2023-02-12T04:58:07;101918.51;;;6.32;97.34
23635;BME280;11994;51.038;16.974;2023-02-12T05:00:33;101916.44;;;6.32;97.29
23635;BME280;11994;51.038;16.974;2023-02-12T05:02:58;101918.20;;;6.33;97.26
23635;BME280;11994;51.038;16.974;2023-02-12T05:05:24;101921.52;;;6.34;97.38
23635;BME280;11994;51.038;16.974;2023-02-12T05:07:49;101923.38;;;6.32;97.28
23635;BME280;11994;51.038;16.974;2023-02-12T05:10:15;101931.91;;;6.32;97.21
23635;BME280;11994;51.038;16.974;2023-02-12T05:12:40;101927.95;;;6.34;97.17
23635;BME280;11994;51.038;16.974;2023-02-12T05:15:06;101929.14;;;6.33;97.20
23635;BME280;11994;51.038;16.974;2023-02-12T05:17:31;101937.14;;;6.34;97.17
23635;BME280;11994;51.038;16.974;2023-02-12T05:19:56;101942.21;;;6.35;97.28
23635;BME280;11994;51.038;16.974;2023-02-12T05:22:22;101941.38;;;6.36;97.21
23635;BME280;11994;51.038;16.974;2023-02-12T05:24:47;101945.08;;;6.39;97.12
23635;BME280;11994;51.038;16.974;2023-02-12T05:27:13;101947.53;;;6.40;97.10
23635;BME280;11994;51.038;16.974;2023-02-12T05:29:38;101950.50;;;6.40;96.98
23635;BME280;11994;51.038;16.974;2023-02-12T05:32:04;101953.95;;;6.39;96.95
23635;BME280;11994;51.038;16.974;2023-02-12T05:34:31;101956.86;;;6.37;96.97
23635;BME280;11994;51.038;16.974;2023-02-12T05:36:56;101959.26;;;6.36;96.88
23635;BME280;11994;51.038;16.974;2023-02-12T05:39:22;101962.05;;;6.36;96.81
23635;BME280;11994;51.038;16.974;2023-02-12T05:41:47;101967.59;;;6.36;96.75
23635;BME280;11994;51.038;16.974;2023-02-12T05:44:12;101967.63;;;6.36;96.87
23635;BME280;11994;51.038;16.974;2023-02-12T05:46:40;101969.52;;;6.36;96.74
23635;BME280;11994;51.038;16.974;2023-02-12T05:49:06;101968.78;;;6.34;96.82
23635;BME280;11994;51.038;16.974;2023-02-12T05:51:32;101972.27;;;6.34;96.75
23635;BME280;11994;51.038;16.974;2023-02-12T05:54:00;101975.67;;;6.39;96.84
23635;BME280;11994;51.038;16.974;2023-02-12T05:56:30;101983.74;;;6.43;96.89
23635;BME280;11994;51.038;16.974;2023-02-12T05:59:01;101992.48;;;6.45;96.74
23635;BME280;11994;51.038;16.974;2023-02-12T06:01:33;101990.74;;;6.45;96.82
23635;BME280;11994;51.038;16.974;2023-02-12T06:04:00;101995.58;;;6.43;96.81
23635;BME280;11994;51.038;16.974;2023-02-12T06:06:27;102000.30;;;6.45;96.80
23635;BME280;11994;51.038;16.974;2023-02-12T06:08:53;102003.83;;;6.47;96.61
23635;BME280;11994;51.038;16.974;2023-02-12T06:11:18;102009.59;;;6.48;96.66
23635;BME280;11994;51.038;16.974;2023-02-12T06:13:45;102014.68;;;6.50;96.69
23635;BME280;11994;51.038;16.974;2023-02-12T06:16:21;102020.25;;;6.50;96.64
23635;BME280;11994;51.038;16.974;2023-02-12T06:18:48;102027.40;;;6.51;96.57
23635;BME280;11994;51.038;16.974;2023-02-12T06:21:14;102033.86;;;6.53;96.60
23635;BME280;11994;51.038;16.974;2023-02-12T06:23:39;102037.23;;;6.55;96.45
23635;BME280;11994;51.038;16.974;2023-02-12T06:26:05;102039.27;;;6.54;96.50
23635;BME280;11994;51.038;16.974;2023-02-12T06:28:30;102040.83;;;6.53;96.51
23635;BME280;11994;51.038;16.974;2023-02-12T06:30:55;102046.52;;;6.52;96.45
23635;BME280;11994;51.038;16.974;2023-02-12T06:33:21;102050.80;;;6.49;96.45
23635;BME280;11994;51.038;16.974;2023-02-12T06:35:46;102052.72;;;6.49;96.38
23635;BME280;11994;51.038;16.974;2023-02-12T06:38:12;102054.33;;;6.51;96.53
23635;BME280;11994;51.038;16.974;2023-02-12T06:40:37;102061.30;;;6.52;96.42
23635;BME280;11994;51.038;16.974;2023-02-12T06:43:02;102076.42;;;6.52;96.48
23635;BME280;11994;51.038;16.974;2023-02-12T06:45:28;102076.04;;;6.50;96.39
23635;BME280;11994;51.038;16.974;2023-02-12T06:47:53;102077.91;;;6.49;96.44
23635;BME280;11994;51.038;16.974;2023-02-12T06:50:19;102080.83;;;6.47;96.36
23635;BME280;11994;51.038;16.974;2023-02-12T06:52:45;102085.15;;;6.47;96.32
23635;BME280;11994;51.038;16.974;2023-02-12T06:55:10;102081.48;;;6.46;96.52
23635;BME280;11994;51.038;16.974;2023-02-12T06:57:36;102084.23;;;6.45;96.53
23635;BME280;11994;51.038;16.974;2023-02-12T07:00:01;102084.41;;;6.44;96.53
23635;BME280;11994;51.038;16.974;2023-02-12T07:02:26;102090.12;;;6.43;96.68
23635;BME280;11994;51.038;16.974;2023-02-12T07:04:52;102091.86;;;6.43;96.55
23635;BME280;11994;51.038;16.974;2023-02-12T07:07:17;102094.14;;;6.44;96.50
23635;BME280;11994;51.038;16.974;2023-02-12T07:09:42;102097.66;;;6.46;96.67
23635;BME280;11994;51.038;16.974;2023-02-12T07:12:08;102096.84;;;6.48;96.59
23635;BME280;11994;51.038;16.974;2023-02-12T07:14:33;102103.26;;;6.47;96.71
23635;BME280;11994;51.038;16.974;2023-02-12T07:16:58;102105.04;;;6.49;96.62
23635;BME280;11994;51.038;16.974;2023-02-12T07:19:28;102107.71;;;6.52;96.74
23635;BME280;11994;51.038;16.974;2023-02-12T07:21:54;102109.48;;;6.54;96.79
23635;BME280;11994;51.038;16.974;2023-02-12T07:24:19;102116.34;;;6.57;96.85
23635;BME280;11994;51.038;16.974;2023-02-12T07:26:45;102117.97;;;6.59;96.76
23635;BME280;11994;51.038;16.974;2023-02-12T07:29:10;102125.06;;;6.58;96.63
23635;BME280;11994;51.038;16.974;2023-02-12T07:31:37;102128.44;;;6.61;96.62
23635;BME280;11994;51.038;16.974;2023-02-12T07:34:02;102132.15;;;6.64;96.61
23635;BME280;11994;51.038;16.974;2023-02-12T07:36:30;102133.08;;;6.66;96.68
23635;BME280;11994;51.038;16.974;2023-02-12T07:38:56;102136.39;;;6.66;96.52
23635;BME280;11994;51.038;16.974;2023-02-12T07:41:33;102135.53;;;6.66;96.65
23635;BME280;11994;51.038;16.974;2023-02-12T07:44:00;102130.85;;;6.67;96.59
23635;BME280;11994;51.038;16.974;2023-02-12T07:46:34;102136.28;;;6.69;96.41
23635;BME280;11994;51.038;16.974;2023-02-12T07:49:03;102134.27;;;6.72;96.42
23635;BME280;11994;51.038;16.974;2023-02-12T07:51:30;102141.80;;;6.74;96.38
23635;BME280;11994;51.038;16.974;2023-02-12T07:53:56;102144.04;;;6.73;96.28
23635;BME280;11994;51.038;16.974;2023-02-12T07:56:24;102145.79;;;6.74;96.36
23635;BME280;11994;51.038;16.974;2023-02-12T07:58:53;102147.89;;;6.75;96.44
23635;BME280;11994;51.038;16.974;2023-02-12T08:03:47;102148.84;;;6.78;96.23
23635;BME280;11994;51.038;16.974;2023-02-12T08:06:15;102155.34;;;6.81;96.29
23635;BME280;11994;51.038;16.974;2023-02-12T08:08:41;102159.79;;;6.85;96.38
23635;BME280;11994;51.038;16.974;2023-02-12T08:11:08;102163.56;;;6.90;96.41
23635;BME280;11994;51.038;16.974;2023-02-12T08:13:35;102162.02;;;6.91;96.29
23635;BME280;11994;51.038;16.974;2023-02-12T08:16:02;102163.95;;;6.92;96.14
23635;BME280;11994;51.038;16.974;2023-02-12T08:18:30;102169.09;;;6.96;95.97
23635;BME280;11994;51.038;16.974;2023-02-12T08:21:01;102164.94;;;6.97;96.07
23635;BME280;11994;51.038;16.974;2023-02-12T08:23:26;102166.54;;;6.99;95.93
23635;BME280;11994;51.038;16.974;2023-02-12T08:25:52;102164.77;;;6.98;95.91
23635;BME280;11994;51.038;16.974;2023-02-12T08:28:17;102163.16;;;6.96;95.76
23635;BME280;11994;51.038;16.974;2023-02-12T08:30:42;102163.73;;;6.98;95.71
23635;BME280;11994;51.038;16.974;2023-02-12T08:33:08;102165.00;;;7.00;95.60
23635;BME280;11994;51.038;16.974;2023-02-12T08:35:33;102163.86;;;7.04;95.70
23635;BME280;11994;51.038;16.974;2023-02-12T08:37:58;102164.11;;;7.07;95.86
23635;BME280;11994;51.038;16.974;2023-02-12T08:40:24;102163.52;;;7.12;95.83
23635;BME280;11994;51.038;16.974;2023-02-12T08:42:51;102164.15;;;7.16;95.80
23635;BME280;11994;51.038;16.974;2023-02-12T08:45:17;102168.06;;;7.20;95.63
23635;BME280;11994;51.038;16.974;2023-02-12T08:47:42;102169.20;;;7.24;95.48
23635;BME280;11994;51.038;16.974;2023-02-12T08:50:08;102168.10;;;7.29;95.54
23635;BME280;11994;51.038;16.974;2023-02-12T08:52:34;102171.66;;;7.33;95.41
23635;BME280;11994;51.038;16.974;2023-02-12T08:54:59;102176.20;;;7.33;95.25
23635;BME280;11994;51.038;16.974;2023-02-12T08:57:25;102174.98;;;7.33;95.00
23635;BME280;11994;51.038;16.974;2023-02-12T08:59:50;102178.83;;;7.34;94.98
23635;BME280;11994;51.038;16.974;2023-02-12T09:02:15;102182.43;;;7.39;94.87
23635;BME280;11994;51.038;16.974;2023-02-12T09:04:41;102183.30;;;7.40;94.58
23635;BME280;11994;51.038;16.974;2023-02-12T09:07:06;102184.66;;;7.39;94.39
23635;BME280;11994;51.038;16.974;2023-02-12T09:09:31;102192.44;;;7.36;94.07
23635;BME280;11994;51.038;16.974;2023-02-12T09:11:57;102198.15;;;7.34;94.16
23635;BME280;11994;51.038;16.974;2023-02-12T09:14:22;102199.02;;;7.34;94.20
23635;BME280;11994;51.038;16.974;2023-02-12T09:16:48;102201.52;;;7.37;94.28
23635;BME280;11994;51.038;16.974;2023-02-12T09:19:13;102201.90;;;7.39;94.25
23635;BME280;11994;51.038;16.974;2023-02-12T09:21:39;102200.90;;;7.40;94.20
23635;BME280;11994;51.038;16.974;2023-02-12T09:24:05;102202.67;;;7.42;94.22
23635;BME280;11994;51.038;16.974;2023-02-12T09:26:30;102201.64;;;7.43;94.12
23635;BME280;11994;51.038;16.974;2023-02-12T09:28:56;102207.75;;;7.44;94.20
23635;BME280;11994;51.038;16.974;2023-02-12T09:31:26;102216.20;;;7.48;94.20
23635;BME280;11994;51.038;16.974;2023-02-12T09:33:53;102221.02;;;7.53;94.24
23635;BME280;11994;51.038;16.974;2023-02-12T09:36:19;102222.27;;;7.55;94.04
23635;BME280;11994;51.038;16.974;2023-02-12T09:38:45;102225.96;;;7.56;93.99
23635;BME280;11994;51.038;16.974;2023-02-12T09:41:54;102224.92;;;7.56;93.91
23635;BME280;11994;51.038;16.974;2023-02-12T09:47:16;102229.19;;;7.52;93.60
23635;BME280;11994;51.038;16.974;2023-02-12T09:50:05;102229.70;;;7.51;93.44
23635;BME280;11994;51.038;16.974;2023-02-12T09:52:36;102230.05;;;7.52;93.72
23635;BME280;11994;51.038;16.974;2023-02-12T09:55:02;102236.34;;;7.53;93.75
23635;BME280;11994;51.038;16.974;2023-02-12T09:57:40;102236.71;;;7.54;93.67
23635;BME280;11994;51.038;16.974;2023-02-12T10:00:36;102238.44;;;7.54;93.59
23635;BME280;11994;51.038;16.974;2023-02-12T10:03:03;102235.92;;;7.58;93.76
23635;BME280;11994;51.038;16.974;2023-02-12T10:05:44;102233.29;;;7.65;93.75
23635;BME280;11994;51.038;16.974;2023-02-12T10:08:19;102229.60;;;7.72;93.87
23635;BME280;11994;51.038;16.974;2023-02-12T10:19:22;102224.44;;;7.66;93.01
23635;BME280;11994;51.038;16.974;2023-02-12T10:21:59;102225.67;;;7.67;93.05
23635;BME280;11994;51.038;16.974;2023-02-12T10:27:15;102227.34;;;7.72;92.96
23635;BME280;11994;51.038;16.974;2023-02-12T10:29:42;102223.93;;;7.75;92.93
23635;BME280;11994;51.038;16.974;2023-02-12T10:34:43;102223.44;;;7.77;92.54
23635;BME280;11994;51.038;16.974;2023-02-12T10:39:55;102219.58;;;7.84;92.53
23635;BME280;11994;51.038;16.974;2023-02-12T10:42:37;102218.37;;;7.85;92.33
23635;BME280;11994;51.038;16.974;2023-02-12T10:45:04;102216.73;;;7.89;92.22
23635;BME280;11994;51.038;16.974;2023-02-12T10:47:30;102208.11;;;7.93;92.30
23635;BME280;11994;51.038;16.974;2023-02-12T10:50:00;102213.23;;;7.97;92.03
23635;BME280;11994;51.038;16.974;2023-02-12T10:52:46;102206.73;;;8.03;91.88
23635;BME280;11994;51.038;16.974;2023-02-12T10:55:30;102207.66;;;8.15;92.22
23635;BME280;11994;51.038;16.974;2023-02-12T10:57:58;102205.36;;;8.30;92.32
23635;BME280;11994;51.038;16.974;2023-02-12T11:05:29;102196.76;;;8.56;91.42
23635;BME280;11994;51.038;16.974;2023-02-12T11:07:54;102195.11;;;8.63;91.40
23635;BME280;11994;51.038;16.974;2023-02-12T11:10:39;102194.24;;;8.74;90.93
23635;BME280;11994;51.038;16.974;2023-02-12T11:13:21;102196.71;;;8.86;90.50
23635;BME280;11994;51.038;16.974;2023-02-12T11:15:48;102194.73;;;8.93;89.62
23635;BME280;11994;51.038;16.974;2023-02-12T11:18:28;102194.51;;;8.89;89.23
23635;BME280;11994;51.038;16.974;2023-02-12T11:21:00;102189.86;;;8.82;88.75
23635;BME280;11994;51.038;16.974;2023-02-12T11:23:34;102191.81;;;8.74;88.43
23635;BME280;11994;51.038;16.974;2023-02-12T11:28:28;102190.64;;;8.66;88.53
23635;BME280;11994;51.038;16.974;2023-02-12T11:31:17;102187.81;;;8.74;88.27
23635;BME280;11994;51.038;16.974;2023-02-12T11:33:44;102193.20;;;8.73;87.33
23635;BME280;11994;51.038;16.974;2023-02-12T11:36:23;102190.44;;;8.65;86.97
23635;BME280;11994;51.038;16.974;2023-02-12T11:38:54;102187.30;;;8.55;86.81
23635;BME280;11994;51.038;16.974;2023-02-12T11:43:49;102186.52;;;8.49;87.31
23635;BME280;11994;51.038;16.974;2023-02-12T11:46:20;102186.56;;;8.52;87.20
23635;BME280;11994;51.038;16.974;2023-02-12T11:48:46;102187.15;;;8.55;87.31
23635;BME280;11994;51.038;16.974;2023-02-12T11:51:19;102190.48;;;8.56;87.07
23635;BME280;11994;51.038;16.974;2023-02-12T11:53:49;102198.13;;;8.55;86.84
23635;BME280;11994;51.038;16.974;2023-02-12T11:56:16;102192.46;;;8.51;86.60
23635;BME280;11994;51.038;16.974;2023-02-12T11:58:42;102191.85;;;8.46;86.43
23635;BME280;11994;51.038;16.974;2023-02-12T12:01:28;102190.95;;;8.44;86.53
23635;BME280;11994;51.038;16.974;2023-02-12T12:04:18;102189.39;;;8.44;86.21
23635;BME280;11994;51.038;16.974;2023-02-12T12:07:09;102194.52;;;8.48;86.07
23635;BME280;11994;51.038;16.974;2023-02-12T12:10:00;102189.19;;;8.53;86.11
23635;BME280;11994;51.038;16.974;2023-02-12T12:12:41;102189.14;;;8.60;86.39
23635;BME280;11994;51.038;16.974;2023-02-12T12:15:37;102184.77;;;8.70;86.38
23635;BME280;11994;51.038;16.974;2023-02-12T12:18:46;102185.27;;;8.79;86.36
23635;BME280;11994;51.038;16.974;2023-02-12T12:21:40;102182.61;;;8.87;86.20
23635;BME280;11994;51.038;16.974;2023-02-12T12:26:39;102184.30;;;8.95;84.69
23635;BME280;11994;51.038;16.974;2023-02-12T12:29:14;102185.66;;;8.93;83.85
23635;BME280;11994;51.038;16.974;2023-02-12T12:31:44;102184.77;;;8.91;83.90
23635;BME280;11994;51.038;16.974;2023-02-12T12:34:28;102181.78;;;8.90;83.95
23635;BME280;11994;51.038;16.974;2023-02-12T12:44:57;102177.27;;;8.81;83.84
23635;BME280;11994;51.038;16.974;2023-02-12T12:50:20;102170.36;;;8.85;83.42
23635;BME280;11994;51.038;16.974;2023-02-12T13:00:56;102165.91;;;8.91;83.11
23635;BME280;11994;51.038;16.974;2023-02-12T13:03:40;102162.84;;;8.96;83.01
23635;BME280;11994;51.038;16.974;2023-02-12T13:17:03;102168.23;;;9.05;82.36
23635;BME280;11994;51.038;16.974;2023-02-12T13:24:44;102169.38;;;9.01;82.00
23635;BME280;11994;51.038;16.974;2023-02-12T13:27:17;102174.02;;;8.96;81.84
23635;BME280;11994;51.038;16.974;2023-02-12T13:29:48;102180.41;;;8.92;81.59
23635;BME280;11994;51.038;16.974;2023-02-12T13:32:22;102177.39;;;8.88;81.69
23635;BME280;11994;51.038;16.974;2023-02-12T13:34:49;102183.81;;;8.87;81.68
23635;BME280;11994;51.038;16.974;2023-02-12T13:37:20;102189.20;;;8.85;81.67
23635;BME280;11994;51.038;16.974;2023-02-12T13:39:50;102191.58;;;8.81;81.18
23635;BME280;11994;51.038;16.974;2023-02-12T13:50:40;102181.86;;;8.74;80.65
23635;BME280;11994;51.038;16.974;2023-02-12T14:01:09;102169.69;;;8.76;80.78
23635;BME280;11994;51.038;16.974;2023-02-12T14:03:36;102170.23;;;8.77;80.78
23635;BME280;11994;51.038;16.974;2023-02-12T14:06:16;102170.27;;;8.80;80.30
23635;BME280;11994;51.038;16.974;2023-02-12T14:08:49;102171.35;;;8.82;80.18
23635;BME280;11994;51.038;16.974;2023-02-12T14:11:21;102173.19;;;8.88;80.21
23635;BME280;11994;51.038;16.974;2023-02-12T14:13:59;102174.33;;;8.94;80.30
23635;BME280;11994;51.038;16.974;2023-02-12T14:21:59;102181.91;;;8.99;79.69
23635;BME280;11994;51.038;16.974;2023-02-12T14:24:46;102183.29;;;8.97;79.26
23635;BME280;11994;51.038;16.974;2023-02-12T14:38:03;102180.59;;;8.81;79.40
23635;BME280;11994;51.038;16.974;2023-02-12T14:40:48;102183.04;;;8.81;79.56
23635;BME280;11994;51.038;16.974;2023-02-12T14:43:28;102186.38;;;8.82;79.71
23635;BME280;11994;51.038;16.974;2023-02-12T14:45:55;102187.42;;;8.83;79.79
23635;BME280;11994;51.038;16.974;2023-02-12T14:51:32;102188.84;;;8.84;79.75
23635;BME280;11994;51.038;16.974;2023-02-12T14:54:01;102184.64;;;8.83;79.70
23635;BME280;11994;51.038;16.974;2023-02-12T14:56:31;102189.70;;;8.84;79.80
23635;BME280;11994;51.038;16.974;2023-02-12T14:59:02;102191.09;;;8.83;79.62
23635;BME280;11994;51.038;16.974;2023-02-12T15:01:36;102195.77;;;8.81;79.55
23635;BME280;11994;51.038;16.974;2023-02-12T15:04:11;102192.77;;;8.79;79.58
23635;BME280;11994;51.038;16.974;2023-02-12T15:06:57;102193.81;;;8.78;79.67
23635;BME280;11994;51.038;16.974;2023-02-12T15:09:35;102188.91;;;8.77;79.57
23635;BME280;11994;51.038;16.974;2023-02-12T15:12:29;102184.20;;;8.78;79.57
23635;BME280;11994;51.038;16.974;2023-02-12T15:15:30;102188.13;;;8.82;79.54
23635;BME280;11994;51.038;16.974;2023-02-12T15:18:21;102190.44;;;8.86;79.75